sensor_id;sensor_type;location;lat;lon;timestamp;pressure;altitude;pressure_sealevel;temperature;humidity
78892;BME280;68368;51.728;5.248;2023-08-17T00:00:36;102002.27;;;17.92;75.78
78892;BME280;68368;51.728;5.248;2023-08-17T00:02:42;102004.73;;;17.93;75.97
78892;BME280;68368;51.728;5.248;2023-08-17T00:04:44;102000.77;;;17.94;75.58
78892;BME280;68368;51.728;5.248;2023-08-17T00:06:50;102001.46;;;17.96;75.79
78892;BME280;68368;51.728;5.248;2023-08-17T00:08:53;102000.91;;;17.96;75.62
78892;BME280;68368;51.728;5.248;2023-08-17T00:10:56;101999.99;;;17.96;75.59
78892;BME280;68368;51.728;5.248;2023-08-17T00:13:00;101996.74;;;17.98;75.72
78892;BME280;68368;51.728;5.248;2023-08-17T00:15:05;101997.08;;;17.99;75.47
78892;BME280;68368;51.728;5.248;2023-08-17T00:17:08;101997.05;;;18.00;75.44
78892;BME280;68368;51.728;5.248;2023-08-17T00:19:12;101995.42;;;18.00;75.89
78892;BME280;68368;51.728;5.248;2023-08-17T00:21:16;101987.94;;;17.98;76.02
78892;BME280;68368;51.728;5.248;2023-08-17T00:23:19;101988.55;;;17.95;76.80
78892;BME280;68368;51.728;5.248;2023-08-17T00:25:23;101986.86;;;17.89;77.36
78892;BME280;68368;51.728;5.248;2023-08-17T00:27:26;101988.44;;;17.84;77.85
78892;BME280;68368;51.728;5.248;2023-08-17T00:29:29;101986.60;;;17.75;78.45
78892;BME280;68368;51.728;5.248;2023-08-17T00:31:33;101990.33;;;17.69;79.01
78892;BME280;68368;51.728;5.248;2023-08-17T00:33:37;101991.40;;;17.60;79.32
78892;BME280;68368;51.728;5.248;2023-08-17T00:35:41;101992.96;;;17.54;79.39
78892;BME280;68368;51.728;5.248;2023-08-17T00:37:44;101987.52;;;17.48;79.84
78892;BME280;68368;51.728;5.248;2023-08-17T00:39:48;101988.50;;;17.45;79.49
78892;BME280;68368;51.728;5.248;2023-08-17T00:41:51;101990.55;;;17.41;79.51
78892;BME280;68368;51.728;5.248;2023-08-17T00:43:55;101994.88;;;17.40;79.35
78892;BME280;68368;51.728;5.248;2023-08-17T00:45:59;101990.44;;;17.37;79.57
78892;BME280;68368;51.728;5.248;2023-08-17T00:48:05;101994.21;;;17.37;79.27
78892;BME280;68368;51.728;5.248;2023-08-17T00:50:12;101994.58;;;17.37;79.13
78892;BME280;68368;51.728;5.248;2023-08-17T00:52:16;101998.35;;;17.36;78.98
78892;BME280;68368;51.728;5.248;2023-08-17T00:54:23;102000.85;;;17.37;78.80
78892;BME280;68368;51.728;5.248;2023-08-17T00:56:27;102004.61;;;17.37;78.93
78892;BME280;68368;51.728;5.248;2023-08-17T00:58:34;102001.02;;;17.37;78.62
78892;BME280;68368;51.728;5.248;2023-08-17T01:00:41;102002.24;;;17.39;78.33
78892;BME280;68368;51.728;5.248;2023-08-17T01:02:45;102003.48;;;17.40;78.14
78892;BME280;68368;51.728;5.248;2023-08-17T01:04:49;102002.72;;;17.42;77.68
78892;BME280;68368;51.728;5.248;2023-08-17T01:06:52;102004.70;;;17.43;77.73
78892;BME280;68368;51.728;5.248;2023-08-17T01:08:55;102002.73;;;17.42;77.57
78892;BME280;68368;51.728;5.248;2023-08-17T01:11:05;102000.04;;;17.42;77.36
78892;BME280;68368;51.728;5.248;2023-08-17T01:13:20;102002.72;;;17.43;77.24
78892;BME280;68368;51.728;5.248;2023-08-17T01:15:35;102001.27;;;17.43;77.09
78892;BME280;68368;51.728;5.248;2023-08-17T01:17:44;101995.33;;;17.43;76.89
78892;BME280;68368;51.728;5.248;2023-08-17T01:19:51;101997.34;;;17.43;76.63
78892;BME280;68368;51.728;5.248;2023-08-17T01:21:57;101994.24;;;17.44;76.59
78892;BME280;68368;51.728;5.248;2023-08-17T01:24:05;101995.69;;;17.44;76.48
78892;BME280;68368;51.728;5.248;2023-08-17T01:26:08;101994.39;;;17.46;76.26
78892;BME280;68368;51.728;5.248;2023-08-17T01:28:11;101990.80;;;17.46;76.12
78892;BME280;68368;51.728;5.248;2023-08-17T01:30:18;101993.98;;;17.49;76.06
78892;BME280;68368;51.728;5.248;2023-08-17T01:32:28;101987.89;;;17.48;76.06
78892;BME280;68368;51.728;5.248;2023-08-17T01:34:40;101988.08;;;17.47;75.87
78892;BME280;68368;51.728;5.248;2023-08-17T01:36:52;101987.73;;;17.46;75.71
78892;BME280;68368;51.728;5.248;2023-08-17T01:38:58;101987.91;;;17.47;75.74
78892;BME280;68368;51.728;5.248;2023-08-17T01:41:05;101983.95;;;17.47;75.59
78892;BME280;68368;51.728;5.248;2023-08-17T01:43:09;101980.91;;;17.47;75.72
78892;BME280;68368;51.728;5.248;2023-08-17T01:45:13;101985.60;;;17.45;75.39
78892;BME280;68368;51.728;5.248;2023-08-17T01:47:20;101984.20;;;17.44;75.45
78892;BME280;68368;51.728;5.248;2023-08-17T01:49:26;101985.48;;;17.43;75.64
78892;BME280;68368;51.728;5.248;2023-08-17T01:51:29;101985.48;;;17.42;75.72
78892;BME280;68368;51.728;5.248;2023-08-17T01:53:32;101986.95;;;17.41;75.74
78892;BME280;68368;51.728;5.248;2023-08-17T01:55:36;101985.36;;;17.40;75.47
78892;BME280;68368;51.728;5.248;2023-08-17T01:57:39;101986.27;;;17.39;75.31
78892;BME280;68368;51.728;5.248;2023-08-17T01:59:42;101988.45;;;17.38;75.28
78892;BME280;68368;51.728;5.248;2023-08-17T02:01:45;101982.02;;;17.36;75.21
78892;BME280;68368;51.728;5.248;2023-08-17T02:03:51;101983.67;;;17.35;75.22
78892;BME280;68368;51.728;5.248;2023-08-17T02:06:04;101978.52;;;17.33;75.36
78892;BME280;68368;51.728;5.248;2023-08-17T02:08:08;101978.70;;;17.32;75.40
78892;BME280;68368;51.728;5.248;2023-08-17T02:10:12;101981.25;;;17.30;75.40
78892;BME280;68368;51.728;5.248;2023-08-17T02:12:17;101977.53;;;17.28;75.33
78892;BME280;68368;51.728;5.248;2023-08-17T02:14:20;101976.68;;;17.25;75.42
78892;BME280;68368;51.728;5.248;2023-08-17T02:16:24;101979.09;;;17.21;75.55
78892;BME280;68368;51.728;5.248;2023-08-17T02:18:28;101977.71;;;17.17;75.65
78892;BME280;68368;51.728;5.248;2023-08-17T02:20:32;101979.23;;;17.14;75.63
78892;BME280;68368;51.728;5.248;2023-08-17T02:22:35;101976.80;;;17.10;75.83
78892;BME280;68368;51.728;5.248;2023-08-17T02:24:38;101973.29;;;17.05;75.89
78892;BME280;68368;51.728;5.248;2023-08-17T02:26:42;101976.06;;;17.01;76.10
78892;BME280;68368;51.728;5.248;2023-08-17T02:28:45;101970.80;;;16.94;76.34
78892;BME280;68368;51.728;5.248;2023-08-17T02:30:54;101969.82;;;16.90;76.36
78892;BME280;68368;51.728;5.248;2023-08-17T02:32:57;101970.80;;;16.84;76.86
78892;BME280;68368;51.728;5.248;2023-08-17T02:35:00;101968.06;;;16.77;76.97
78892;BME280;68368;51.728;5.248;2023-08-17T02:37:04;101965.63;;;16.71;77.10
78892;BME280;68368;51.728;5.248;2023-08-17T02:39:07;101970.04;;;16.65;77.18
78892;BME280;68368;51.728;5.248;2023-08-17T02:41:10;101968.00;;;16.58;77.34
78892;BME280;68368;51.728;5.248;2023-08-17T02:43:16;101965.59;;;16.53;77.48
78892;BME280;68368;51.728;5.248;2023-08-17T02:45:22;101971.73;;;16.49;77.55
78892;BME280;68368;51.728;5.248;2023-08-17T02:47:27;101966.80;;;16.44;77.88
78892;BME280;68368;51.728;5.248;2023-08-17T02:49:35;101976.55;;;16.41;78.12
78892;BME280;68368;51.728;5.248;2023-08-17T02:51:41;101976.61;;;16.36;78.16
78892;BME280;68368;51.728;5.248;2023-08-17T02:53:44;101975.21;;;16.34;78.32
78892;BME280;68368;51.728;5.248;2023-08-17T02:55:47;101974.35;;;16.32;78.29
78892;BME280;68368;51.728;5.248;2023-08-17T02:57:50;101971.16;;;16.29;78.84
78892;BME280;68368;51.728;5.248;2023-08-17T02:59:54;101969.92;;;16.28;78.98
78892;BME280;68368;51.728;5.248;2023-08-17T03:01:57;101968.85;;;16.28;78.83
78892;BME280;68368;51.728;5.248;2023-08-17T03:04:01;101972.25;;;16.28;78.93
78892;BME280;68368;51.728;5.248;2023-08-17T03:06:06;101972.95;;;16.30;79.14
78892;BME280;68368;51.728;5.248;2023-08-17T03:08:09;101975.44;;;16.31;79.18
78892;BME280;68368;51.728;5.248;2023-08-17T03:10:12;101977.70;;;16.35;79.24
78892;BME280;68368;51.728;5.248;2023-08-17T03:12:15;101974.45;;;16.37;79.19
78892;BME280;68368;51.728;5.248;2023-08-17T03:14:19;101975.67;;;16.39;79.04
78892;BME280;68368;51.728;5.248;2023-08-17T03:16:23;101977.79;;;16.41;79.01
78892;BME280;68368;51.728;5.248;2023-08-17T03:18:26;101975.80;;;16.41;78.97
78892;BME280;68368;51.728;5.248;2023-08-17T03:20:32;101973.09;;;16.43;79.26
78892;BME280;68368;51.728;5.248;2023-08-17T03:22:36;101970.03;;;16.44;79.17
78892;BME280;68368;51.728;5.248;2023-08-17T03:24:39;101960.30;;;16.37;79.22
78892;BME280;68368;51.728;5.248;2023-08-17T03:26:43;101968.23;;;16.44;79.12
78892;BME280;68368;51.728;5.248;2023-08-17T03:28:46;101968.23;;;16.45;79.31
78892;BME280;68368;51.728;5.248;2023-08-17T03:30:54;101971.98;;;16.46;79.28
78892;BME280;68368;51.728;5.248;2023-08-17T03:32:58;101965.70;;;16.47;79.39
78892;BME280;68368;51.728;5.248;2023-08-17T03:35:02;101965.52;;;16.46;79.61
78892;BME280;68368;51.728;5.248;2023-08-17T03:37:06;101966.24;;;16.46;79.59
78892;BME280;68368;51.728;5.248;2023-08-17T03:39:18;101968.21;;;16.45;79.61
78892;BME280;68368;51.728;5.248;2023-08-17T03:41:22;101965.89;;;16.45;79.81
78892;BME280;68368;51.728;5.248;2023-08-17T03:43:26;101966.97;;;16.45;79.76
78892;BME280;68368;51.728;5.248;2023-08-17T03:45:31;101964.30;;;16.44;79.60
78892;BME280;68368;51.728;5.248;2023-08-17T03:47:34;101964.52;;;16.41;79.74
78892;BME280;68368;51.728;5.248;2023-08-17T03:49:39;101965.80;;;16.40;79.60
78892;BME280;68368;51.728;5.248;2023-08-17T03:51:43;101964.39;;;16.39;79.66
78892;BME280;68368;51.728;5.248;2023-08-17T03:53:48;101964.05;;;16.38;79.79
78892;BME280;68368;51.728;5.248;2023-08-17T03:55:52;101966.05;;;16.36;79.88
78892;BME280;68368;51.728;5.248;2023-08-17T03:57:55;101961.05;;;16.34;79.79
78892;BME280;68368;51.728;5.248;2023-08-17T03:59:58;101960.02;;;16.32;80.01
78892;BME280;68368;51.728;5.248;2023-08-17T04:02:01;101963.47;;;16.29;79.87
78892;BME280;68368;51.728;5.248;2023-08-17T04:04:05;101958.11;;;16.27;79.66
78892;BME280;68368;51.728;5.248;2023-08-17T04:06:08;101966.35;;;16.27;79.86
78892;BME280;68368;51.728;5.248;2023-08-17T04:08:12;101964.96;;;16.25;80.03
78892;BME280;68368;51.728;5.248;2023-08-17T04:10:16;101966.42;;;16.23;79.90
78892;BME280;68368;51.728;5.248;2023-08-17T04:12:20;101972.89;;;16.21;79.99
78892;BME280;68368;51.728;5.248;2023-08-17T04:14:23;101970.79;;;16.19;80.05
78892;BME280;68368;51.728;5.248;2023-08-17T04:16:26;101979.94;;;16.18;80.07
78892;BME280;68368;51.728;5.248;2023-08-17T04:18:31;101978.71;;;16.16;80.18
78892;BME280;68368;51.728;5.248;2023-08-17T04:20:34;101980.02;;;16.13;80.04
78892;BME280;68368;51.728;5.248;2023-08-17T04:22:38;101980.76;;;16.12;80.32
78892;BME280;68368;51.728;5.248;2023-08-17T04:24:49;101979.70;;;16.10;80.13
78892;BME280;68368;51.728;5.248;2023-08-17T04:26:53;101984.02;;;16.09;80.29
78892;BME280;68368;51.728;5.248;2023-08-17T04:28:56;101983.50;;;16.07;80.48
78892;BME280;68368;51.728;5.248;2023-08-17T04:31:01;101983.70;;;16.06;80.16
78892;BME280;68368;51.728;5.248;2023-08-17T04:33:06;101983.71;;;16.05;80.37
78892;BME280;68368;51.728;5.248;2023-08-17T04:35:10;101981.95;;;16.02;80.38
78892;BME280;68368;51.728;5.248;2023-08-17T04:37:16;101986.66;;;16.00;80.74
78892;BME280;68368;51.728;5.248;2023-08-17T04:39:19;101986.15;;;15.98;80.91
78892;BME280;68368;51.728;5.248;2023-08-17T04:41:23;101985.80;;;15.96;80.92
78892;BME280;68368;51.728;5.248;2023-08-17T04:43:27;101991.55;;;15.96;81.05
78892;BME280;68368;51.728;5.248;2023-08-17T04:45:31;101992.10;;;15.94;81.20
78892;BME280;68368;51.728;5.248;2023-08-17T04:47:37;101992.65;;;15.94;81.38
78892;BME280;68368;51.728;5.248;2023-08-17T04:49:41;101990.50;;;15.95;81.31
78892;BME280;68368;51.728;5.248;2023-08-17T04:51:47;101988.33;;;15.96;81.10
78892;BME280;68368;51.728;5.248;2023-08-17T04:53:50;101984.55;;;15.97;81.25
78892;BME280;68368;51.728;5.248;2023-08-17T04:55:55;101983.97;;;15.99;81.34
78892;BME280;68368;51.728;5.248;2023-08-17T04:57:58;101982.14;;;16.02;81.11
78892;BME280;68368;51.728;5.248;2023-08-17T05:00:01;101983.56;;;16.03;81.30
78892;BME280;68368;51.728;5.248;2023-08-17T05:02:05;101982.09;;;16.06;81.38
78892;BME280;68368;51.728;5.248;2023-08-17T05:04:11;101982.23;;;16.09;81.36
78892;BME280;68368;51.728;5.248;2023-08-17T05:06:14;101979.67;;;16.12;81.12
78892;BME280;68368;51.728;5.248;2023-08-17T05:08:19;101979.27;;;16.15;81.09
78892;BME280;68368;51.728;5.248;2023-08-17T05:10:25;101978.67;;;16.19;80.93
78892;BME280;68368;51.728;5.248;2023-08-17T05:12:28;101975.39;;;16.22;80.96
78892;BME280;68368;51.728;5.248;2023-08-17T05:14:32;101976.75;;;16.27;80.68
78892;BME280;68368;51.728;5.248;2023-08-17T05:16:37;101978.46;;;16.32;80.51
78892;BME280;68368;51.728;5.248;2023-08-17T05:18:41;101979.79;;;16.39;80.49
78892;BME280;68368;51.728;5.248;2023-08-17T05:20:44;101984.11;;;16.48;80.04
78892;BME280;68368;51.728;5.248;2023-08-17T05:22:48;101981.96;;;16.60;79.78
78892;BME280;68368;51.728;5.248;2023-08-17T05:24:52;101979.23;;;16.73;79.51
78892;BME280;68368;51.728;5.248;2023-08-17T05:26:57;101973.07;;;16.88;79.01
78892;BME280;68368;51.728;5.248;2023-08-17T05:29:00;101972.97;;;17.04;78.48
78892;BME280;68368;51.728;5.248;2023-08-17T05:31:06;101970.73;;;17.17;77.99
78892;BME280;68368;51.728;5.248;2023-08-17T05:33:09;101973.44;;;17.26;77.77
78892;BME280;68368;51.728;5.248;2023-08-17T05:35:14;101972.61;;;17.32;77.40
78892;BME280;68368;51.728;5.248;2023-08-17T05:37:17;101972.53;;;17.35;77.06
78892;BME280;68368;51.728;5.248;2023-08-17T05:39:20;101974.30;;;17.36;77.08
78892;BME280;68368;51.728;5.248;2023-08-17T05:41:26;101973.89;;;17.39;76.98
78892;BME280;68368;51.728;5.248;2023-08-17T05:43:31;101974.90;;;17.42;77.03
78892;BME280;68368;51.728;5.248;2023-08-17T05:45:34;101974.56;;;17.41;76.91
78892;BME280;68368;51.728;5.248;2023-08-17T05:47:38;101976.92;;;17.40;76.97
78892;BME280;68368;51.728;5.248;2023-08-17T05:49:42;101975.96;;;17.42;76.92
78892;BME280;68368;51.728;5.248;2023-08-17T05:51:46;101975.92;;;17.45;76.85
78892;BME280;68368;51.728;5.248;2023-08-17T05:53:49;101979.39;;;17.51;76.81
78892;BME280;68368;51.728;5.248;2023-08-17T05:55:52;101981.43;;;17.56;76.66
78892;BME280;68368;51.728;5.248;2023-08-17T05:57:56;101970.31;;;17.56;76.49
78892;BME280;68368;51.728;5.248;2023-08-17T05:59:59;101984.05;;;17.69;76.27
78892;BME280;68368;51.728;5.248;2023-08-17T06:02:02;101988.10;;;17.73;76.13
78892;BME280;68368;51.728;5.248;2023-08-17T06:04:06;101993.77;;;17.76;75.57
78892;BME280;68368;51.728;5.248;2023-08-17T06:06:11;101995.09;;;17.82;75.61
78892;BME280;68368;51.728;5.248;2023-08-17T06:08:15;101994.39;;;17.90;75.55
78892;BME280;68368;51.728;5.248;2023-08-17T06:10:18;101995.84;;;17.98;75.19
78892;BME280;68368;51.728;5.248;2023-08-17T06:12:21;101999.52;;;18.02;75.13
78892;BME280;68368;51.728;5.248;2023-08-17T06:14:25;102000.92;;;18.04;74.93
78892;BME280;68368;51.728;5.248;2023-08-17T06:16:28;102000.88;;;18.05;74.84
78892;BME280;68368;51.728;5.248;2023-08-17T06:18:32;101999.52;;;18.10;74.86
78892;BME280;68368;51.728;5.248;2023-08-17T06:20:35;102000.84;;;18.22;74.59
78892;BME280;68368;51.728;5.248;2023-08-17T06:22:38;101997.78;;;18.38;73.99
78892;BME280;68368;51.728;5.248;2023-08-17T06:24:49;101999.91;;;18.61;73.45
78892;BME280;68368;51.728;5.248;2023-08-17T06:26:52;101998.40;;;18.86;72.32
78892;BME280;68368;51.728;5.248;2023-08-17T06:28:55;102000.98;;;19.11;71.44
78892;BME280;68368;51.728;5.248;2023-08-17T06:30:58;101994.05;;;19.34;70.60
78892;BME280;68368;51.728;5.248;2023-08-17T06:33:02;101994.83;;;19.57;69.97
78892;BME280;68368;51.728;5.248;2023-08-17T06:35:08;102001.55;;;19.81;69.16
78892;BME280;68368;51.728;5.248;2023-08-17T06:37:11;101999.62;;;20.02;68.25
78892;BME280;68368;51.728;5.248;2023-08-17T06:39:15;101995.70;;;20.19;66.66
78892;BME280;68368;51.728;5.248;2023-08-17T06:41:19;102002.72;;;20.30;66.53
78892;BME280;68368;51.728;5.248;2023-08-17T06:43:22;101998.82;;;20.39;66.44
78892;BME280;68368;51.728;5.248;2023-08-17T06:45:26;101997.36;;;20.51;66.16
78892;BME280;68368;51.728;5.248;2023-08-17T06:47:29;102000.69;;;20.66;65.51
78892;BME280;68368;51.728;5.248;2023-08-17T06:49:34;101998.55;;;20.80;65.16
78892;BME280;68368;51.728;5.248;2023-08-17T06:51:37;102004.96;;;21.04;64.11
78892;BME280;68368;51.728;5.248;2023-08-17T06:53:40;102008.82;;;21.47;62.67
78892;BME280;68368;51.728;5.248;2023-08-17T06:55:44;102002.83;;;22.29;59.97
78892;BME280;68368;51.728;5.248;2023-08-17T06:57:48;101991.73;;;23.12;58.04
78892;BME280;68368;51.728;5.248;2023-08-17T07:00:01;101992.58;;;23.85;54.38
78892;BME280;68368;51.728;5.248;2023-08-17T07:02:02;101989.83;;;24.53;53.06
78892;BME280;68368;51.728;5.248;2023-08-17T07:04:06;101988.38;;;25.16;51.97
78892;BME280;68368;51.728;5.248;2023-08-17T07:06:10;101991.52;;;25.80;49.55
78892;BME280;68368;51.728;5.248;2023-08-17T07:08:15;101995.55;;;25.89;49.63
78892;BME280;68368;51.728;5.248;2023-08-17T07:10:18;101996.76;;;26.23;48.09
78892;BME280;68368;51.728;5.248;2023-08-17T07:12:22;101993.21;;;26.62;46.13
78892;BME280;68368;51.728;5.248;2023-08-17T07:14:26;101993.22;;;27.04;46.79
78892;BME280;68368;51.728;5.248;2023-08-17T07:16:29;101990.92;;;27.45;44.92
78892;BME280;68368;51.728;5.248;2023-08-17T07:18:32;101993.25;;;27.65;43.45
78892;BME280;68368;51.728;5.248;2023-08-17T07:20:39;101989.95;;;26.98;44.05
78892;BME280;68368;51.728;5.248;2023-08-17T07:22:42;101996.02;;;26.58;45.15
78892;BME280;68368;51.728;5.248;2023-08-17T07:24:46;101997.46;;;26.42;45.15
78892;BME280;68368;51.728;5.248;2023-08-17T07:26:49;101994.22;;;26.22;46.26
78892;BME280;68368;51.728;5.248;2023-08-17T07:28:53;101995.27;;;26.08;46.15
78892;BME280;68368;51.728;5.248;2023-08-17T07:30:56;101992.98;;;25.93;46.70
78892;BME280;68368;51.728;5.248;2023-08-17T07:33:02;101993.63;;;26.20;45.71
78892;BME280;68368;51.728;5.248;2023-08-17T07:35:08;101998.08;;;26.09;45.34
78892;BME280;68368;51.728;5.248;2023-08-17T07:37:13;101996.86;;;25.95;46.20
78892;BME280;68368;51.728;5.248;2023-08-17T07:39:16;102001.33;;;25.63;46.63
78892;BME280;68368;51.728;5.248;2023-08-17T07:41:20;101994.91;;;25.24;47.57
78892;BME280;68368;51.728;5.248;2023-08-17T07:43:24;102004.09;;;25.04;47.90
78892;BME280;68368;51.728;5.248;2023-08-17T07:45:27;101996.33;;;24.79;48.32
78892;BME280;68368;51.728;5.248;2023-08-17T07:47:31;102000.46;;;24.62;49.19
78892;BME280;68368;51.728;5.248;2023-08-17T07:49:37;102005.15;;;24.55;49.66
78892;BME280;68368;51.728;5.248;2023-08-17T07:51:46;102006.84;;;24.61;49.40
78892;BME280;68368;51.728;5.248;2023-08-17T07:53:49;102002.84;;;25.08;48.91
78892;BME280;68368;51.728;5.248;2023-08-17T07:55:54;102004.52;;;25.38;47.59
78892;BME280;68368;51.728;5.248;2023-08-17T07:57:57;102006.34;;;25.00;48.03
78892;BME280;68368;51.728;5.248;2023-08-17T08:00:01;102003.65;;;24.52;49.10
78892;BME280;68368;51.728;5.248;2023-08-17T08:02:05;102000.02;;;24.27;50.11
78892;BME280;68368;51.728;5.248;2023-08-17T08:04:09;102000.65;;;23.87;50.91
78892;BME280;68368;51.728;5.248;2023-08-17T08:06:12;101999.67;;;23.52;51.84
78892;BME280;68368;51.728;5.248;2023-08-17T08:08:15;101998.63;;;23.32;52.43
78892;BME280;68368;51.728;5.248;2023-08-17T08:10:19;102003.27;;;23.22;53.23
78892;BME280;68368;51.728;5.248;2023-08-17T08:12:22;102001.96;;;23.06;53.81
78892;BME280;68368;51.728;5.248;2023-08-17T08:14:26;102000.83;;;22.99;54.30
78892;BME280;68368;51.728;5.248;2023-08-17T08:16:29;102000.05;;;23.00;54.42
78892;BME280;68368;51.728;5.248;2023-08-17T08:18:33;101997.79;;;23.14;54.69
78892;BME280;68368;51.728;5.248;2023-08-17T08:20:38;101996.94;;;23.38;54.41
78892;BME280;68368;51.728;5.248;2023-08-17T08:22:41;102003.71;;;23.44;53.74
78892;BME280;68368;51.728;5.248;2023-08-17T08:24:44;102002.52;;;23.46;54.19
78892;BME280;68368;51.728;5.248;2023-08-17T08:26:47;102008.14;;;23.50;54.24
78892;BME280;68368;51.728;5.248;2023-08-17T08:28:51;102010.16;;;23.53;54.12
78892;BME280;68368;51.728;5.248;2023-08-17T08:30:54;102007.46;;;23.61;53.76
78892;BME280;68368;51.728;5.248;2023-08-17T08:32:58;102009.11;;;23.60;53.50
78892;BME280;68368;51.728;5.248;2023-08-17T08:35:02;102011.91;;;23.51;53.48
78892;BME280;68368;51.728;5.248;2023-08-17T08:37:05;102008.32;;;23.30;54.14
78892;BME280;68368;51.728;5.248;2023-08-17T08:39:08;102009.48;;;23.12;54.72
78892;BME280;68368;51.728;5.248;2023-08-17T08:41:13;102007.10;;;22.91;55.22
78892;BME280;68368;51.728;5.248;2023-08-17T08:43:17;102012.73;;;22.65;55.94
78892;BME280;68368;51.728;5.248;2023-08-17T08:45:21;102007.09;;;22.48;56.65
78892;BME280;68368;51.728;5.248;2023-08-17T08:47:27;102002.98;;;22.34;57.13
78892;BME280;68368;51.728;5.248;2023-08-17T08:49:38;102000.45;;;22.25;57.71
78892;BME280;68368;51.728;5.248;2023-08-17T08:51:44;102003.33;;;22.17;57.72
78892;BME280;68368;51.728;5.248;2023-08-17T08:53:49;101999.02;;;22.25;57.83
78892;BME280;68368;51.728;5.248;2023-08-17T08:55:57;102000.48;;;22.38;57.68
78892;BME280;68368;51.728;5.248;2023-08-17T08:58:07;102005.20;;;22.46;57.33
78892;BME280;68368;51.728;5.248;2023-08-17T09:00:13;101997.63;;;22.41;57.26
78892;BME280;68368;51.728;5.248;2023-08-17T09:02:17;102001.12;;;22.26;57.93
78892;BME280;68368;51.728;5.248;2023-08-17T09:04:21;101994.80;;;22.17;58.27
78892;BME280;68368;51.728;5.248;2023-08-17T09:06:26;102000.44;;;22.02;58.93
78892;BME280;68368;51.728;5.248;2023-08-17T09:08:31;102000.77;;;21.94;59.34
78892;BME280;68368;51.728;5.248;2023-08-17T09:10:35;101993.34;;;21.89;59.44
78892;BME280;68368;51.728;5.248;2023-08-17T09:12:38;101994.23;;;21.90;59.48
78892;BME280;68368;51.728;5.248;2023-08-17T09:14:42;101987.15;;;21.95;59.64
78892;BME280;68368;51.728;5.248;2023-08-17T09:16:45;101990.08;;;21.99;59.63
78892;BME280;68368;51.728;5.248;2023-08-17T09:18:48;101990.14;;;21.98;59.45
78892;BME280;68368;51.728;5.248;2023-08-17T09:20:53;101986.98;;;21.90;59.53
78892;BME280;68368;51.728;5.248;2023-08-17T09:22:57;101990.07;;;21.90;59.92
78892;BME280;68368;51.728;5.248;2023-08-17T09:25:09;101990.77;;;21.85;60.12
78892;BME280;68368;51.728;5.248;2023-08-17T09:27:13;101986.42;;;21.81;60.21
78892;BME280;68368;51.728;5.248;2023-08-17T09:29:31;101985.39;;;21.75;60.53
78892;BME280;68368;51.728;5.248;2023-08-17T09:31:36;101982.87;;;21.70;60.80
78892;BME280;68368;51.728;5.248;2023-08-17T09:33:42;101979.19;;;21.67;60.96
78892;BME280;68368;51.728;5.248;2023-08-17T09:35:45;101982.00;;;21.69;60.90
78892;BME280;68368;51.728;5.248;2023-08-17T09:37:51;101978.46;;;21.67;60.94
78892;BME280;68368;51.728;5.248;2023-08-17T09:39:55;101976.54;;;21.61;60.92
78892;BME280;68368;51.728;5.248;2023-08-17T09:41:59;101978.75;;;21.64;61.14
78892;BME280;68368;51.728;5.248;2023-08-17T09:44:03;101977.71;;;21.63;61.01
78892;BME280;68368;51.728;5.248;2023-08-17T09:46:07;101972.98;;;21.64;61.46
78892;BME280;68368;51.728;5.248;2023-08-17T09:48:12;101974.14;;;21.58;61.44
78892;BME280;68368;51.728;5.248;2023-08-17T09:50:17;101974.01;;;21.52;61.52
78892;BME280;68368;51.728;5.248;2023-08-17T09:52:25;101970.20;;;21.52;61.61
78892;BME280;68368;51.728;5.248;2023-08-17T09:54:29;101971.77;;;21.53;61.51
78892;BME280;68368;51.728;5.248;2023-08-17T09:56:36;101970.66;;;21.54;61.32
78892;BME280;68368;51.728;5.248;2023-08-17T09:58:40;101968.35;;;21.53;61.31
78892;BME280;68368;51.728;5.248;2023-08-17T10:00:46;101972.57;;;21.51;61.50
78892;BME280;68368;51.728;5.248;2023-08-17T10:02:51;101967.75;;;21.50;61.55
78892;BME280;68368;51.728;5.248;2023-08-17T10:04:58;101968.92;;;21.52;61.75
78892;BME280;68368;51.728;5.248;2023-08-17T10:07:05;101962.02;;;21.53;61.65
78892;BME280;68368;51.728;5.248;2023-08-17T10:09:14;101962.86;;;21.69;61.43
78892;BME280;68368;51.728;5.248;2023-08-17T10:11:20;101962.16;;;21.91;60.92
78892;BME280;68368;51.728;5.248;2023-08-17T10:13:31;101958.60;;;22.03;60.30
78892;BME280;68368;51.728;5.248;2023-08-17T10:15:41;101955.52;;;22.08;60.44
78892;BME280;68368;51.728;5.248;2023-08-17T10:17:53;101954.09;;;22.08;60.38
78892;BME280;68368;51.728;5.248;2023-08-17T10:19:59;101953.53;;;22.04;60.50
78892;BME280;68368;51.728;5.248;2023-08-17T10:22:08;101950.52;;;22.07;60.68
78892;BME280;68368;51.728;5.248;2023-08-17T10:24:12;101947.84;;;22.11;60.46
78892;BME280;68368;51.728;5.248;2023-08-17T10:26:15;101948.00;;;22.20;60.61
78892;BME280;68368;51.728;5.248;2023-08-17T10:28:20;101944.88;;;22.34;60.55
78892;BME280;68368;51.728;5.248;2023-08-17T10:30:24;101945.66;;;22.46;60.43
78892;BME280;68368;51.728;5.248;2023-08-17T10:32:28;101945.19;;;22.49;59.78
78892;BME280;68368;51.728;5.248;2023-08-17T10:34:31;101944.69;;;22.52;59.41
78892;BME280;68368;51.728;5.248;2023-08-17T10:36:36;101945.06;;;22.52;59.29
78892;BME280;68368;51.728;5.248;2023-08-17T10:38:42;101947.38;;;22.53;59.37
78892;BME280;68368;51.728;5.248;2023-08-17T10:40:47;101949.98;;;22.55;59.36
78892;BME280;68368;51.728;5.248;2023-08-17T10:43:10;101949.38;;;22.57;59.38
78892;BME280;68368;51.728;5.248;2023-08-17T10:47:49;101952.00;;;22.63;59.17
78892;BME280;68368;51.728;5.248;2023-08-17T10:49:57;101949.81;;;22.64;59.16
78892;BME280;68368;51.728;5.248;2023-08-17T10:52:06;101950.05;;;22.62;59.20
78892;BME280;68368;51.728;5.248;2023-08-17T10:54:12;101946.64;;;22.57;59.29